createdAt,value
2018-04-19T00:00:39.085Z,15.70
2018-04-19T00:03:05.258Z,15.70
2018-04-19T00:05:31.319Z,15.70
2018-04-19T00:07:58.162Z,15.60
2018-04-19T00:10:24.588Z,15.60
2018-04-19T00:12:50.616Z,15.50
2018-04-19T00:15:16.664Z,15.50
2018-04-19T00:17:42.960Z,15.50
2018-04-19T00:20:09.024Z,15.40
2018-04-19T00:22:35.094Z,15.50
2018-04-19T00:25:01.876Z,15.40
2018-04-19T00:27:27.982Z,15.40
2018-04-19T00:29:54.077Z,15.40
2018-04-19T00:32:20.135Z,15.40
2018-04-19T00:34:46.236Z,15.30
2018-04-19T00:37:12.358Z,15.30
2018-04-19T00:39:38.451Z,15.30
2018-04-19T00:42:05.337Z,15.20
2018-04-19T00:44:32.205Z,15.10
2018-04-19T00:46:58.344Z,15.10
2018-04-19T00:49:24.408Z,15.10
2018-04-19T00:51:50.443Z,15.10
2018-04-19T00:54:16.824Z,15.00
2018-04-19T00:56:42.951Z,15.10
2018-04-19T00:59:09.063Z,15.20
2018-04-19T01:01:36.329Z,15.00
2018-04-19T01:04:02.360Z,14.90
2018-04-19T01:06:28.599Z,14.90
2018-04-19T01:08:54.724Z,14.90
2018-04-19T01:11:20.780Z,14.90
2018-04-19T01:13:46.849Z,14.90
2018-04-19T01:16:13.723Z,14.80
2018-04-19T01:18:39.968Z,14.80
2018-04-19T01:21:06.124Z,14.70
2018-04-19T01:23:32.175Z,15.20
2018-04-19T01:25:58.349Z,14.80
2018-04-19T01:28:24.440Z,14.80
2018-04-19T01:30:50.463Z,14.70
2018-04-19T01:33:16.515Z,14.70
2018-04-19T01:35:55.039Z,14.70
2018-04-19T01:38:21.083Z,14.70
2018-04-19T01:40:47.120Z,14.40
2018-04-19T01:43:13.243Z,14.50
2018-04-19T01:45:39.381Z,14.70
2018-04-19T01:48:06.232Z,14.80
2018-04-19T01:50:32.410Z,14.60
2018-04-19T01:52:58.620Z,14.50
2018-04-19T01:55:25.458Z,14.50
2018-04-19T01:57:51.508Z,14.50
2018-04-19T02:00:17.549Z,14.40
2018-04-19T02:02:43.731Z,14.40
2018-04-19T02:05:10.596Z,14.30
2018-04-19T02:07:36.663Z,14.30
2018-04-19T02:10:02.740Z,14.30
2018-04-19T02:12:28.861Z,14.30
2018-04-19T02:14:54.924Z,14.30
2018-04-19T02:17:20.956Z,14.20
2018-04-19T02:19:47.009Z,14.20
2018-04-19T02:22:13.124Z,14.10
2018-04-19T02:24:40.052Z,14.20
2018-04-19T02:27:06.189Z,14.20
2018-04-19T02:29:32.227Z,14.20
2018-04-19T02:31:58.356Z,14.10
2018-04-19T02:34:25.512Z,14.10
2018-04-19T02:36:51.559Z,14.10
2018-04-19T02:39:17.605Z,14.20
2018-04-19T02:41:43.728Z,14.00
2018-04-19T02:44:10.722Z,14.00
2018-04-19T02:46:36.808Z,13.90
2018-04-19T02:49:04.544Z,13.90
2018-04-19T02:51:31.340Z,13.80
2018-04-19T02:53:57.388Z,13.80
2018-04-19T02:56:23.442Z,13.80
2018-04-19T02:58:49.486Z,13.70
2018-04-19T03:01:15.581Z,13.70
2018-04-19T03:03:41.839Z,13.70
2018-04-19T03:06:07.920Z,13.70
2018-04-19T03:08:34.732Z,13.70
2018-04-19T03:11:00.844Z,13.60
2018-04-19T03:13:26.924Z,13.60
2018-04-19T03:15:52.972Z,13.30
2018-04-19T03:18:21.613Z,13.60
2018-04-19T03:20:47.701Z,13.60
2018-04-19T03:23:13.865Z,13.50
2018-04-19T03:25:40.125Z,13.40
2018-04-19T03:28:08.745Z,13.40
2018-04-19T03:30:34.796Z,13.30
2018-04-19T03:33:00.889Z,13.30
2018-04-19T03:35:26.956Z,13.30
2018-04-19T03:37:53.010Z,13.30
2018-04-19T03:40:19.060Z,13.20
2018-04-19T03:42:45.210Z,13.30
2018-04-19T03:45:12.075Z,13.20
2018-04-19T03:47:38.151Z,13.20
2018-04-19T03:50:04.229Z,13.20
2018-04-19T03:52:30.344Z,13.20
2018-04-19T03:54:56.404Z,13.20
2018-04-19T03:57:22.458Z,13.10
2018-04-19T03:59:49.251Z,13.10
2018-04-19T04:02:15.439Z,13.10
2018-04-19T04:04:41.567Z,13.10
2018-04-19T04:07:07.687Z,13.10
2018-04-19T04:09:33.732Z,13.10
2018-04-19T04:12:00.015Z,13.00
2018-04-19T04:14:26.111Z,13.00
2018-04-19T04:17:04.604Z,13.00
2018-04-19T04:19:42.908Z,13.00
2018-04-19T04:22:21.574Z,12.60
2018-04-19T04:24:47.687Z,12.90
2018-04-19T04:27:13.775Z,12.90
2018-04-19T04:29:39.917Z,12.90
2018-04-19T04:32:06.194Z,12.90
2018-04-19T04:34:32.315Z,12.80
2018-04-19T04:36:59.151Z,12.90
2018-04-19T04:39:25.208Z,12.70
2018-04-19T04:41:51.260Z,12.90
2018-04-19T04:44:17.321Z,12.90
2018-04-19T04:46:43.428Z,12.90
2018-04-19T04:49:09.581Z,12.90
2018-04-19T04:51:35.652Z,12.90
2018-04-19T04:54:01.752Z,12.90
2018-04-19T04:56:28.522Z,12.90
2018-04-19T04:58:55.762Z,13.00
2018-04-19T05:01:21.805Z,12.80
2018-04-19T05:03:47.933Z,12.80
2018-04-19T05:06:14.146Z,12.90
2018-04-19T05:08:40.294Z,12.90
2018-04-19T05:11:06.384Z,12.90
2018-04-19T05:13:32.432Z,12.90
2018-04-19T05:15:58.494Z,12.90
2018-04-19T05:18:24.544Z,12.90
2018-04-19T05:20:50.596Z,12.90
2018-04-19T05:23:16.642Z,12.90
2018-04-19T05:25:42.772Z,13.00
2018-04-19T05:28:08.833Z,13.00
2018-04-19T05:30:34.891Z,13.00
2018-04-19T05:33:00.962Z,13.00
2018-04-19T05:35:27.017Z,13.00
2018-04-19T05:37:53.108Z,12.80
2018-04-19T05:40:19.900Z,13.00
2018-04-19T05:42:46.443Z,12.90
2018-04-19T05:45:12.659Z,13.00
2018-04-19T05:47:38.758Z,13.10
2018-04-19T05:50:04.976Z,13.20
2018-04-19T05:52:31.076Z,13.30
2018-04-19T05:54:57.854Z,13.40
2018-04-19T05:57:23.996Z,13.40
2018-04-19T05:59:50.056Z,13.50
2018-04-19T06:02:16.371Z,13.50
2018-04-19T06:04:42.605Z,13.60
2018-04-19T06:07:08.670Z,13.90
2018-04-19T06:09:34.727Z,14.00
2018-04-19T06:12:00.852Z,13.80
2018-04-19T06:14:26.979Z,14.30
2018-04-19T06:16:53.099Z,14.20
2018-04-19T06:19:19.162Z,14.60
2018-04-19T06:21:45.298Z,14.80
2018-04-19T06:24:11.434Z,15.00
2018-04-19T06:26:37.517Z,15.20
2018-04-19T06:29:04.353Z,15.60
2018-04-19T06:31:30.447Z,15.60
2018-04-19T06:33:57.312Z,16.00
2018-04-19T06:36:23.344Z,16.00
2018-04-19T06:38:49.440Z,16.30
2018-04-19T06:41:15.617Z,16.40
2018-04-19T06:43:41.846Z,16.60
2018-04-19T06:46:07.937Z,16.80
2018-04-19T06:48:34.729Z,17.40
2018-04-19T06:51:00.927Z,17.40
2018-04-19T06:53:27.129Z,17.70
2018-04-19T06:55:53.189Z,18.00
2018-04-19T06:58:19.239Z,18.40
2018-04-19T07:00:46.187Z,19.00
2018-04-19T07:03:12.450Z,18.90
2018-04-19T07:05:38.553Z,19.20
2018-04-19T07:08:06.325Z,19.70
2018-04-19T07:10:32.384Z,19.70
2018-04-19T07:12:58.420Z,20.00
2018-04-19T07:15:24.460Z,20.30
2018-04-19T07:17:50.495Z,20.50
2018-04-19T07:20:16.844Z,20.70
2018-04-19T07:22:43.855Z,21.20
2018-04-19T07:27:45.622Z,21.50
2018-04-19T07:30:12.669Z,21.90
2018-04-19T07:32:38.850Z,21.80
2018-04-19T07:35:04.976Z,22.00
2018-04-19T07:37:31.093Z,22.20
2018-04-19T07:39:57.162Z,22.90
2018-04-19T07:42:23.212Z,23.10
2018-04-19T07:44:50.517Z,24.10
2018-04-19T07:47:16.814Z,25.60
2018-04-19T07:49:43.044Z,27.50
2018-04-19T07:52:09.113Z,29.50
2018-04-19T07:54:35.164Z,31.80
2018-04-19T07:57:01.324Z,33.70
2018-04-19T07:59:28.181Z,36.60
2018-04-19T08:01:54.961Z,37.50
2018-04-19T08:04:21.013Z,37.50
2018-04-19T08:06:47.189Z,38.40
2018-04-19T08:09:13.482Z,38.40
2018-04-19T08:11:39.540Z,38.10
2018-04-19T08:14:05.632Z,38.60
2018-04-19T08:16:31.804Z,39.10
2018-04-19T08:18:57.964Z,39.60
2018-04-19T08:21:24.012Z,40.00
2018-04-19T08:23:50.056Z,39.60
2018-04-19T08:26:18.334Z,39.00
2018-04-19T08:28:46.852Z,37.60
2018-04-19T08:31:13.141Z,35.40
2018-04-19T08:33:39.237Z,33.40
2018-04-19T08:36:06.106Z,30.60
2018-04-19T08:38:32.149Z,30.50
2018-04-19T08:40:58.208Z,29.90
2018-04-19T08:43:27.884Z,29.00
2018-04-19T08:45:53.992Z,28.50
2018-04-19T08:48:20.865Z,27.90
2018-04-19T08:50:47.072Z,27.80
2018-04-19T08:53:13.398Z,27.60
2018-04-19T08:55:40.591Z,27.20
2018-04-19T08:58:07.407Z,27.10
2018-04-19T09:00:38.101Z,27.20
2018-04-19T09:03:04.157Z,27.10
2018-04-19T09:05:30.948Z,26.90
2018-04-19T09:07:57.066Z,27.10
2018-04-19T09:10:26.259Z,27.00
2018-04-19T09:12:53.068Z,27.20
2018-04-19T09:15:22.911Z,27.20
2018-04-19T09:17:49.034Z,27.30
2018-04-19T09:20:15.173Z,27.40
2018-04-19T09:22:42.158Z,27.60
2018-04-19T09:25:08.948Z,27.70
2018-04-19T09:27:35.117Z,27.70
2018-04-19T09:30:01.250Z,27.90
2018-04-19T09:32:32.293Z,27.90
2018-04-19T09:34:58.366Z,28.00
2018-04-19T09:37:24.420Z,28.10
2018-04-19T09:39:50.472Z,28.20
2018-04-19T09:42:17.387Z,28.40
2018-04-19T09:44:43.572Z,28.40
2018-04-19T09:47:09.976Z,28.50
2018-04-19T09:49:36.089Z,28.20
2018-04-19T09:52:02.458Z,28.60
2018-04-19T09:54:28.517Z,28.70
2018-04-19T09:56:55.304Z,28.90
2018-04-19T09:59:21.364Z,28.90
2018-04-19T10:01:50.393Z,29.10
2018-04-19T10:04:16.460Z,29.20
2018-04-19T10:06:43.427Z,29.30
2018-04-19T10:09:09.492Z,29.30
2018-04-19T10:11:35.645Z,29.40
2018-04-19T10:14:01.698Z,29.60
2018-04-19T10:16:28.532Z,29.90
2018-04-19T10:18:54.612Z,29.80
2018-04-19T10:21:21.459Z,30.10
2018-04-19T10:23:47.479Z,30.10
2018-04-19T10:26:13.633Z,30.00
2018-04-19T10:28:39.712Z,30.10
2018-04-19T10:31:05.795Z,30.00
2018-04-19T10:33:31.876Z,30.00
2018-04-19T10:35:57.951Z,30.00
2018-04-19T10:38:23.995Z,30.00
2018-04-19T10:40:50.054Z,30.20
2018-04-19T10:43:16.984Z,30.10
2018-04-19T10:45:45.649Z,30.40
2018-04-19T10:48:11.727Z,30.10
2018-04-19T10:50:37.820Z,30.20
2018-04-19T10:53:03.888Z,30.20
2018-04-19T10:55:29.994Z,30.10
2018-04-19T10:57:56.055Z,30.10
2018-04-19T11:00:22.091Z,30.10
2018-04-19T11:02:48.192Z,30.20
2018-04-19T11:05:17.108Z,30.30
2018-04-19T11:07:43.295Z,30.30
2018-04-19T11:10:09.507Z,30.40
2018-04-19T11:12:36.344Z,30.60
2018-04-19T11:15:02.468Z,30.50
2018-04-19T11:17:28.578Z,30.80
2018-04-19T11:19:54.643Z,30.80
2018-04-19T11:22:21.465Z,30.80
2018-04-19T11:24:52.028Z,30.80
2018-04-19T11:27:18.568Z,30.80
2018-04-19T11:29:44.717Z,31.20
2018-04-19T11:32:11.636Z,31.10
2018-04-19T11:34:38.589Z,31.20
2018-04-19T11:37:04.652Z,31.20
2018-04-19T11:39:30.867Z,31.30
2018-04-19T11:41:58.917Z,31.30
2018-04-19T11:44:24.988Z,31.40
2018-04-19T11:46:51.027Z,31.30
2018-04-19T11:49:17.115Z,31.30
2018-04-19T11:51:44.040Z,31.40
2018-04-19T11:54:10.225Z,31.40
2018-04-19T11:56:36.335Z,31.50
2018-04-19T11:59:03.119Z,31.50
2018-04-19T12:01:31.132Z,31.50
2018-04-19T12:03:57.197Z,31.60
2018-04-19T12:06:23.253Z,31.70
2018-04-19T12:08:49.360Z,31.50
2018-04-19T12:11:15.462Z,31.80
2018-04-19T12:13:42.562Z,32.00
2018-04-19T12:16:08.620Z,32.00
2018-04-19T12:18:34.680Z,31.90
2018-04-19T12:21:04.271Z,31.80
2018-04-19T12:23:30.351Z,31.70
2018-04-19T12:25:57.136Z,31.80
2018-04-19T12:28:23.240Z,31.70
2018-04-19T12:30:50.125Z,31.70
2018-04-19T12:33:16.453Z,31.70
2018-04-19T12:35:47.037Z,31.80
2018-04-19T12:38:13.209Z,31.90
2018-04-19T12:40:39.296Z,32.00
2018-04-19T12:43:06.246Z,32.00
2018-04-19T12:45:32.333Z,32.10
2018-04-19T12:47:58.397Z,32.00
2018-04-19T12:50:24.462Z,31.90
2018-04-19T12:52:50.561Z,31.90
2018-04-19T12:55:18.938Z,31.80
2018-04-19T12:57:45.844Z,31.90
2018-04-19T13:00:12.009Z,32.00
2018-04-19T13:02:38.085Z,32.00
2018-04-19T13:05:04.226Z,32.00
2018-04-19T13:07:31.317Z,32.10
2018-04-19T13:09:57.392Z,32.00
2018-04-19T13:12:23.530Z,32.00
2018-04-19T13:14:52.261Z,31.80
2018-04-19T13:17:18.400Z,31.70
2018-04-19T13:19:44.652Z,31.70
2018-04-19T13:22:11.674Z,31.80
2018-04-19T13:24:37.772Z,31.80
2018-04-19T13:27:04.625Z,32.10
2018-04-19T13:29:34.726Z,32.20
2018-04-19T13:32:02.160Z,32.20
2018-04-19T13:34:28.284Z,32.30
2018-04-19T13:36:54.340Z,32.30
2018-04-19T13:39:20.392Z,32.20
2018-04-19T13:41:46.566Z,32.20
2018-04-19T13:44:12.927Z,32.20
2018-04-19T13:46:39.028Z,32.20
2018-04-19T13:49:07.136Z,32.20
2018-04-19T13:51:35.988Z,32.30
2018-04-19T13:54:02.059Z,32.30
2018-04-19T13:56:28.140Z,32.30
2018-04-19T13:58:55.022Z,32.20
2018-04-19T14:01:21.075Z,32.20
2018-04-19T14:03:47.369Z,32.20
2018-04-19T14:06:16.536Z,32.20
2018-04-19T14:08:42.721Z,32.30
2018-04-19T14:11:08.780Z,32.30
2018-04-19T14:13:35.645Z,32.20
2018-04-19T14:16:01.969Z,32.30
2018-04-19T14:18:28.795Z,32.30
2018-04-19T14:20:54.876Z,32.30
2018-04-19T14:23:22.867Z,32.30
2018-04-19T14:25:48.977Z,32.20
2018-04-19T14:28:15.169Z,32.20
2018-04-19T14:30:41.399Z,32.20
2018-04-19T14:33:07.504Z,32.20
2018-04-19T14:35:34.301Z,32.20
2018-04-19T14:38:00.456Z,32.20
2018-04-19T14:40:28.079Z,32.20
2018-04-19T14:42:55.835Z,32.10
2018-04-19T14:45:21.903Z,32.10
2018-04-19T14:47:48.097Z,32.00
2018-04-19T14:50:14.707Z,32.10
2018-04-19T14:52:43.724Z,32.00
2018-04-19T14:55:09.806Z,31.80
2018-04-19T14:57:35.901Z,31.70
2018-04-19T15:00:01.980Z,31.80
2018-04-19T15:02:29.887Z,31.60
2018-04-19T15:04:55.951Z,31.60
2018-04-19T15:07:22.755Z,31.40
2018-04-19T15:09:48.855Z,31.40
2018-04-19T15:12:14.981Z,31.50
2018-04-19T15:14:41.563Z,31.50
2018-04-19T15:17:08.386Z,31.50
2018-04-19T15:19:34.465Z,31.50
2018-04-19T15:22:00.713Z,31.40
2018-04-19T15:24:26.800Z,31.30
2018-04-19T15:26:52.889Z,31.40
2018-04-19T15:29:18.972Z,31.40
2018-04-19T15:31:45.145Z,31.40
2018-04-19T15:34:11.426Z,31.20
2018-04-19T15:36:38.307Z,31.10
2018-04-19T15:39:05.295Z,31.10
2018-04-19T15:41:32.136Z,31.00
2018-04-19T15:43:58.194Z,31.00
2018-04-19T15:46:25.021Z,30.90
2018-04-19T15:48:51.071Z,30.90
2018-04-19T15:51:17.204Z,30.80
2018-04-19T15:53:43.492Z,30.80
2018-04-19T15:56:10.284Z,30.40
2018-04-19T15:58:36.388Z,30.70
2018-04-19T16:01:03.317Z,30.70
2018-04-19T16:03:29.357Z,30.70
2018-04-19T16:05:55.474Z,30.90
2018-04-19T16:08:21.915Z,30.70
2018-04-19T16:10:48.028Z,30.70
2018-04-19T16:13:14.233Z,30.70
2018-04-19T16:15:40.510Z,30.70
2018-04-19T16:18:06.880Z,30.70
2018-04-19T16:20:33.017Z,30.60
2018-04-19T16:23:01.904Z,30.50
2018-04-19T16:25:27.975Z,30.40
2018-04-19T16:27:54.040Z,30.30
2018-04-19T16:30:20.842Z,30.20
2018-04-19T16:32:47.063Z,30.10
2018-04-19T16:35:13.260Z,30.20
2018-04-19T16:37:40.083Z,30.00
2018-04-19T16:40:06.304Z,30.00
2018-04-19T16:42:32.376Z,30.00
2018-04-19T16:44:58.478Z,29.90
2018-04-19T16:47:24.569Z,29.70
2018-04-19T16:49:50.664Z,29.70
2018-04-19T16:52:17.001Z,29.50
2018-04-19T16:54:43.306Z,29.40
2018-04-19T16:57:10.148Z,29.30
2018-04-19T16:59:36.267Z,29.30
2018-04-19T17:02:02.462Z,29.50
2018-04-19T17:04:28.519Z,29.40
2018-04-19T17:06:55.408Z,29.20
2018-04-19T17:09:22.211Z,29.00
2018-04-19T17:11:52.852Z,29.00
2018-04-19T17:14:24.202Z,29.00
2018-04-19T17:16:51.185Z,28.90
2018-04-19T17:19:17.507Z,28.90
2018-04-19T17:21:43.858Z,28.90
2018-04-19T17:24:10.216Z,28.90
2018-04-19T17:26:37.263Z,28.70
2018-04-19T17:29:05.952Z,28.70
2018-04-19T17:31:32.388Z,28.60
2018-04-19T17:34:01.467Z,28.60
2018-04-19T17:36:28.460Z,28.50
2018-04-19T17:38:54.813Z,28.40
2018-04-19T17:41:21.091Z,28.20
2018-04-19T17:43:48.112Z,28.30
2018-04-19T17:46:14.425Z,28.20
2018-04-19T17:48:40.815Z,28.20
2018-04-19T17:51:07.091Z,28.20
2018-04-19T17:53:33.453Z,28.10
2018-04-19T17:55:59.758Z,28.00
2018-04-19T17:58:26.029Z,27.90
2018-04-19T18:00:52.795Z,27.80
2018-04-19T18:03:20.112Z,27.70
2018-04-19T18:05:46.526Z,27.80
2018-04-19T18:08:13.618Z,27.40
2018-04-19T18:10:39.928Z,27.40
2018-04-19T18:13:06.640Z,27.30
2018-04-19T18:15:32.928Z,27.20
2018-04-19T18:17:59.182Z,27.20
2018-04-19T18:20:25.445Z,27.00
2018-04-19T18:22:51.721Z,27.00
2018-04-19T18:25:17.929Z,26.90
2018-04-19T18:27:44.220Z,26.80
2018-04-19T18:30:10.664Z,26.70
2018-04-19T18:32:36.960Z,26.40
2018-04-19T18:35:03.951Z,26.40
2018-04-19T18:37:30.244Z,26.30
2018-04-19T18:39:56.573Z,26.20
2018-04-19T18:42:23.369Z,26.10
2018-04-19T18:44:50.976Z,26.30
2018-04-19T18:47:17.219Z,25.80
2018-04-19T18:49:44.261Z,25.50
2018-04-19T18:52:10.682Z,25.50
2018-04-19T18:54:36.972Z,25.30
2018-04-19T18:57:03.226Z,25.20
2018-04-19T18:59:29.508Z,25.10
2018-04-19T19:01:55.857Z,25.20
2018-04-19T19:04:22.116Z,24.80
2018-04-19T19:06:48.511Z,24.70
2018-04-19T19:09:14.845Z,24.60
2018-04-19T19:11:41.262Z,24.50
2018-04-19T19:14:07.662Z,24.40
2018-04-19T19:16:33.934Z,24.30
2018-04-19T19:19:13.551Z,24.10
2018-04-19T19:21:39.640Z,24.10
2018-04-19T19:24:05.729Z,24.00
2018-04-19T19:26:31.841Z,23.90
2018-04-19T19:28:57.919Z,23.80
2018-04-19T19:31:24.706Z,23.50
2018-04-19T19:33:50.873Z,23.50
2018-04-19T19:36:16.973Z,23.40
2018-04-19T19:38:43.179Z,23.30
2018-04-19T19:41:09.991Z,23.20
2018-04-19T19:43:36.068Z,23.20
2018-04-19T19:46:02.267Z,23.10
2018-04-19T19:48:28.526Z,23.00
2018-04-19T19:51:00.156Z,23.40
2018-04-19T19:53:26.204Z,22.90
2018-04-19T19:55:52.248Z,22.70
2018-04-19T19:58:18.316Z,22.70
2018-04-19T20:00:46.592Z,22.50
2018-04-19T20:03:13.475Z,22.50
2018-04-19T20:05:39.573Z,22.40
2018-04-19T20:08:05.615Z,22.40
2018-04-19T20:10:31.740Z,22.30
2018-04-19T20:12:57.828Z,22.20
2018-04-19T20:15:23.875Z,22.00
2018-04-19T20:17:50.019Z,22.00
2018-04-19T20:20:16.098Z,21.90
2018-04-19T20:22:42.228Z,21.80
2018-04-19T20:25:11.840Z,21.80
2018-04-19T20:27:38.026Z,21.70
2018-04-19T20:30:04.269Z,21.40
2018-04-19T20:32:31.463Z,21.40
2018-04-19T20:34:57.557Z,21.30
2018-04-19T20:37:23.619Z,21.30
2018-04-19T20:39:49.684Z,21.20
2018-04-19T20:42:16.704Z,21.10
2018-04-19T20:44:42.947Z,21.00
2018-04-19T20:47:09.081Z,21.00
2018-04-19T20:49:35.122Z,20.90
2018-04-19T20:52:01.175Z,21.30
2018-04-19T20:54:27.371Z,20.80
2018-04-19T20:56:53.412Z,20.70
2018-04-19T20:59:19.501Z,20.60
2018-04-19T21:01:45.919Z,20.50
2018-04-19T21:04:12.086Z,20.50
2018-04-19T21:06:38.196Z,20.30
2018-04-19T21:09:04.236Z,20.10
2018-04-19T21:11:30.372Z,20.30
2018-04-19T21:13:57.168Z,20.20
2018-04-19T21:16:23.290Z,20.20
2018-04-19T21:18:50.088Z,20.00
2018-04-19T21:21:16.240Z,20.00
2018-04-19T21:23:42.425Z,20.00
2018-04-19T21:26:08.644Z,19.90
2018-04-19T21:28:34.856Z,19.80
2018-04-19T21:31:01.092Z,19.80
2018-04-19T21:33:27.191Z,19.70
2018-04-19T21:35:53.224Z,19.60
2018-04-19T21:38:19.291Z,19.60
2018-04-19T21:40:45.505Z,19.60
2018-04-19T21:43:11.674Z,19.70
2018-04-19T21:45:37.757Z,19.10
2018-04-19T21:48:04.575Z,19.20
2018-04-19T21:50:30.691Z,19.20
2018-04-19T21:52:56.744Z,19.20
2018-04-19T21:55:22.780Z,19.10
2018-04-19T21:57:49.112Z,19.00
2018-04-19T22:00:15.294Z,18.90
2018-04-19T22:02:42.248Z,18.80
2018-04-19T22:05:08.350Z,18.80
2018-04-19T22:07:34.946Z,18.80
2018-04-19T22:10:01.102Z,18.70
2018-04-19T22:12:27.163Z,18.70
2018-04-19T22:14:56.721Z,18.60
2018-04-19T22:17:23.548Z,18.50
2018-04-19T22:19:49.676Z,18.50
2018-04-19T22:22:15.809Z,18.50
2018-04-19T22:24:42.056Z,18.40
2018-04-19T22:27:08.158Z,18.40
2018-04-19T22:29:34.298Z,18.30
2018-04-19T22:32:02.530Z,18.20
2018-04-19T22:34:28.704Z,18.10
2018-04-19T22:36:54.784Z,18.20
2018-04-19T22:39:20.831Z,18.10
2018-04-19T22:41:47.027Z,18.10
2018-04-19T22:44:14.352Z,18.10
2018-04-19T22:46:40.562Z,18.00
2018-04-19T22:49:06.828Z,18.00
2018-04-19T22:51:32.885Z,17.90
2018-04-19T22:53:58.948Z,17.80
2018-04-19T22:56:25.049Z,17.80
2018-04-19T22:58:51.092Z,17.80
2018-04-19T23:01:17.202Z,17.90
2018-04-19T23:03:43.429Z,17.70
2018-04-19T23:06:10.505Z,17.60
2018-04-19T23:08:36.792Z,17.60
2018-04-19T23:11:03.623Z,17.50
2018-04-19T23:13:29.676Z,17.60
2018-04-19T23:15:56.544Z,17.50
2018-04-19T23:18:23.341Z,17.50
2018-04-19T23:20:49.377Z,17.40
2018-04-19T23:23:16.637Z,17.40
2018-04-19T23:25:42.892Z,17.40
2018-04-19T23:28:10.036Z,17.30
2018-04-19T23:30:36.283Z,17.10
2018-04-19T23:33:02.407Z,17.20
2018-04-19T23:35:28.481Z,17.30
2018-04-19T23:37:54.516Z,17.20
2018-04-19T23:40:20.552Z,17.10
2018-04-19T23:42:46.672Z,17.10
2018-04-19T23:45:13.534Z,17.20
2018-04-19T23:47:41.347Z,16.90
2018-04-19T23:50:08.247Z,16.90
2018-04-19T23:52:34.296Z,16.90
2018-04-19T23:55:00.495Z,16.80
2018-04-19T23:57:26.564Z,16.80
2018-04-19T23:59:52.620Z,16.80
